createdAt,value
2022-08-03T00:01:01.761Z,24.18
2022-08-03T00:03:30.199Z,24.13
2022-08-03T00:06:04.236Z,24.22
2022-08-03T00:08:40.174Z,24.24
2022-08-03T00:11:10.708Z,24.24
2022-08-03T00:13:39.190Z,24.24
2022-08-03T00:16:08.062Z,24.24
2022-08-03T00:18:37.174Z,24.18
2022-08-03T00:21:08.589Z,24.13
2022-08-03T00:23:51.120Z,24.10
2022-08-03T00:26:22.415Z,24.14
2022-08-03T00:28:52.406Z,24.12
2022-08-03T00:31:45.012Z,24.15
2022-08-03T00:34:13.022Z,24.11
2022-08-03T00:36:46.432Z,24.12
2022-08-03T00:39:14.623Z,24.11
2022-08-03T00:42:14.347Z,24.11
2022-08-03T00:45:01.111Z,24.12
2022-08-03T00:47:29.520Z,24.14
2022-08-03T00:49:58.087Z,24.17
2022-08-03T00:52:27.672Z,24.13
2022-08-03T00:54:56.525Z,24.10
2022-08-03T00:57:27.586Z,24.08
2022-08-03T00:59:58.084Z,24.06
2022-08-03T01:02:26.330Z,24.08
2022-08-03T01:04:54.897Z,24.05
2022-08-03T01:07:31.739Z,24.07
2022-08-03T01:10:07.834Z,24.00
2022-08-03T01:12:44.194Z,24.00
2022-08-03T01:15:18.939Z,23.97
2022-08-03T01:17:56.455Z,24.00
2022-08-03T01:20:35.116Z,24.01
2022-08-03T01:23:44.783Z,24.02
2022-08-03T01:26:34.522Z,24.00
2022-08-03T01:29:34.037Z,23.99
2022-08-03T01:32:58.564Z,23.97
2022-08-03T01:35:10.572Z,23.89
2022-08-03T01:37:44.252Z,23.88
2022-08-03T01:40:18.122Z,23.93
2022-08-03T01:42:59.357Z,23.87
2022-08-03T01:45:29.069Z,23.98
2022-08-03T01:48:05.291Z,23.96
2022-08-03T01:50:34.526Z,23.97
2022-08-03T01:53:03.607Z,23.98
2022-08-03T01:55:39.118Z,24.05
2022-08-03T01:58:09.002Z,24.04
2022-08-03T02:00:39.098Z,24.11
2022-08-03T02:03:20.295Z,24.09
2022-08-03T02:06:17.850Z,24.12
2022-08-03T02:08:48.759Z,24.09
2022-08-03T02:11:20.835Z,24.13
2022-08-03T02:13:50.983Z,24.17
2022-08-03T02:16:25.540Z,24.16
2022-08-03T02:18:59.556Z,24.14
2022-08-03T02:21:57.290Z,24.16
2022-08-03T02:24:22.604Z,24.20
2022-08-03T02:26:52.787Z,24.21
2022-08-03T02:29:39.299Z,24.29
2022-08-03T02:32:12.746Z,24.25
2022-08-03T02:34:46.444Z,24.29
2022-08-03T02:39:59.394Z,24.22
2022-08-03T02:42:51.655Z,24.24
2022-08-03T02:45:22.493Z,24.25
2022-08-03T02:50:39.259Z,24.18
2022-08-03T02:53:09.245Z,24.22
2022-08-03T02:55:45.805Z,24.23
2022-08-03T02:58:16.962Z,24.20
2022-08-03T03:00:46.212Z,24.16
2022-08-03T03:03:20.620Z,24.19
2022-08-03T03:05:57.684Z,24.14
2022-08-03T03:08:28.806Z,24.21
2022-08-03T03:11:05.592Z,24.18
2022-08-03T03:13:42.345Z,24.16
2022-08-03T03:16:52.146Z,24.05
2022-08-03T03:23:32.438Z,23.94
2022-08-03T03:26:03.504Z,23.92
2022-08-03T03:31:15.925Z,23.85
2022-08-03T03:33:47.509Z,23.86
2022-08-03T03:36:16.338Z,23.86
2022-08-03T03:38:46.023Z,23.84
2022-08-03T03:41:15.782Z,23.86
2022-08-03T03:43:44.787Z,23.89
2022-08-03T03:46:14.357Z,23.86
2022-08-03T03:48:44.440Z,23.88
2022-08-03T03:51:13.387Z,23.84
2022-08-03T03:53:58.356Z,23.86
2022-08-03T03:56:30.855Z,23.86
2022-08-03T03:59:07.994Z,23.86
2022-08-03T04:01:36.199Z,23.89
2022-08-03T04:04:22.399Z,23.84
2022-08-03T04:07:08.282Z,23.84
2022-08-03T04:09:59.243Z,23.84
2022-08-03T04:12:40.186Z,23.82
2022-08-03T04:15:22.590Z,23.84
2022-08-03T04:17:53.993Z,23.87
2022-08-03T04:20:24.467Z,23.88
2022-08-03T04:22:54.637Z,23.87
2022-08-03T04:25:29.286Z,23.88
2022-08-03T04:28:29.330Z,23.87
2022-08-03T04:30:51.136Z,23.86
2022-08-03T04:33:20.999Z,23.91
2022-08-03T04:36:01.032Z,23.83
2022-08-03T04:38:35.716Z,23.82
2022-08-03T04:41:07.522Z,23.83
2022-08-03T04:43:40.093Z,23.83
2022-08-03T04:46:13.376Z,23.85
2022-08-03T04:48:44.776Z,23.85
2022-08-03T04:51:19.760Z,23.85
2022-08-03T04:53:48.341Z,23.85
2022-08-03T04:56:22.986Z,23.82
2022-08-03T04:59:07.197Z,23.78
2022-08-03T05:01:36.314Z,23.86
2022-08-03T05:04:05.563Z,23.85
2022-08-03T05:06:34.395Z,23.86
2022-08-03T05:09:05.257Z,23.84
2022-08-03T05:11:39.394Z,23.83
2022-08-03T05:14:08.200Z,23.88
2022-08-03T05:16:36.590Z,23.84
2022-08-03T05:19:04.953Z,23.81
2022-08-03T05:21:53.732Z,23.85
2022-08-03T05:24:23.586Z,23.82
2022-08-03T05:26:53.470Z,23.79
2022-08-03T05:29:22.425Z,23.80
2022-08-03T05:31:51.000Z,23.74
2022-08-03T05:34:20.410Z,23.75
2022-08-03T05:36:48.654Z,23.78
2022-08-03T05:39:16.877Z,23.80
2022-08-03T05:41:45.811Z,23.82
2022-08-03T05:44:15.702Z,23.83
2022-08-03T05:46:44.175Z,23.88
2022-08-03T05:49:12.481Z,23.86
2022-08-03T05:51:44.013Z,23.88
2022-08-03T05:54:12.704Z,23.82
2022-08-03T05:56:41.437Z,23.79
2022-08-03T05:59:35.692Z,23.80
2022-08-03T06:02:00.290Z,23.81
2022-08-03T06:04:29.665Z,23.83
2022-08-03T06:06:57.886Z,23.85
2022-08-03T06:09:31.860Z,23.79
2022-08-03T06:12:16.314Z,23.80
2022-08-03T06:14:44.964Z,23.68
2022-08-03T06:17:19.231Z,23.42
2022-08-03T06:19:47.435Z,23.30
2022-08-03T06:22:16.886Z,23.16
2022-08-03T06:24:53.438Z,23.02
2022-08-03T06:27:36.392Z,22.88
2022-08-03T06:30:06.441Z,22.78
2022-08-03T06:32:36.245Z,22.65
2022-08-03T06:35:04.472Z,22.57
2022-08-03T06:37:34.982Z,22.49
2022-08-03T06:40:08.020Z,22.42
2022-08-03T06:42:36.168Z,22.42
2022-08-03T06:45:05.992Z,22.36
2022-08-03T06:47:36.071Z,22.40
2022-08-03T06:50:13.031Z,22.40
2022-08-03T06:52:45.779Z,22.35
2022-08-03T06:55:13.926Z,22.35
2022-08-03T06:57:42.154Z,22.38
2022-08-03T07:00:12.820Z,22.33
2022-08-03T07:02:43.166Z,22.39
2022-08-03T07:05:11.991Z,22.36
2022-08-03T07:07:41.085Z,22.36
2022-08-03T07:10:11.681Z,22.33
2022-08-03T07:12:55.607Z,22.35
2022-08-03T07:15:53.778Z,22.31
2022-08-03T07:18:15.647Z,22.30
2022-08-03T07:20:46.838Z,22.26
2022-08-03T07:23:19.271Z,22.21
2022-08-03T07:25:48.299Z,22.25
2022-08-03T07:28:18.806Z,22.27
2022-08-03T07:30:47.196Z,22.27
2022-08-03T07:33:17.000Z,22.26
2022-08-03T07:35:45.403Z,22.31
2022-08-03T07:38:13.780Z,22.38
2022-08-03T07:40:45.853Z,22.45
2022-08-03T07:43:15.724Z,22.59
2022-08-03T07:45:44.004Z,22.67
2022-08-03T07:48:12.872Z,22.77
2022-08-03T07:50:42.567Z,22.95
2022-08-03T07:53:11.016Z,23.13
2022-08-03T07:55:39.526Z,23.24
2022-08-03T07:58:12.608Z,23.34
2022-08-03T08:00:41.554Z,23.45
2022-08-03T08:03:10.229Z,23.57
2022-08-03T08:05:40.158Z,23.66
2022-08-03T08:08:10.181Z,23.67
2022-08-03T08:10:38.913Z,23.60
2022-08-03T08:13:07.940Z,23.60
2022-08-03T08:15:36.297Z,23.70
2022-08-03T08:18:11.864Z,23.78
2022-08-03T08:20:40.258Z,23.89
2022-08-03T08:23:35.447Z,24.06
2022-08-03T08:26:01.270Z,24.13
2022-08-03T08:28:33.565Z,24.17
2022-08-03T08:31:02.848Z,24.21
2022-08-03T08:34:04.577Z,24.22
2022-08-03T08:36:36.812Z,24.27
2022-08-03T08:39:22.657Z,24.25
2022-08-03T08:42:12.054Z,24.24
2022-08-03T08:44:43.435Z,24.05
2022-08-03T08:47:51.797Z,23.96
2022-08-03T08:50:29.556Z,23.85
2022-08-03T08:53:05.857Z,23.85
2022-08-03T08:55:59.207Z,23.90
2022-08-03T08:58:38.764Z,23.97
2022-08-03T09:01:09.172Z,24.02
2022-08-03T09:03:44.428Z,24.18
2022-08-03T09:06:13.584Z,24.36
2022-08-03T09:17:08.374Z,24.40
2022-08-03T09:20:03.585Z,24.45
2022-08-03T09:22:35.947Z,24.54
2022-08-03T09:27:45.193Z,24.68
2022-08-03T09:30:33.324Z,24.76
2022-08-03T09:33:11.770Z,24.96
2022-08-03T09:36:02.497Z,25.18
2022-08-03T09:38:31.745Z,25.36
2022-08-03T09:41:01.120Z,25.61
2022-08-03T09:43:44.042Z,25.67
2022-08-03T09:46:32.342Z,25.66
2022-08-03T09:49:20.050Z,25.65
2022-08-03T09:52:38.239Z,25.73
2022-08-03T09:56:30.696Z,25.74
2022-08-03T09:58:09.663Z,25.73
2022-08-03T10:09:54.356Z,25.68
2022-08-03T10:12:24.754Z,25.64
2022-08-03T10:14:55.495Z,25.69
2022-08-03T10:17:25.824Z,25.81
2022-08-03T10:19:56.699Z,26.05
2022-08-03T10:22:29.641Z,26.18
2022-08-03T10:28:30.790Z,26.36
2022-08-03T10:34:10.730Z,26.25
2022-08-03T10:39:23.477Z,26.12
2022-08-03T10:47:27.638Z,25.79
2022-08-03T10:49:59.449Z,25.67
2022-08-03T10:52:31.854Z,25.55
2022-08-03T10:59:27.788Z,25.23
2022-08-03T11:02:01.211Z,25.10
2022-08-03T11:05:05.436Z,25.05
2022-08-03T11:07:53.112Z,24.99
2022-08-03T11:10:33.514Z,24.99
2022-08-03T11:13:13.886Z,24.97
2022-08-03T11:16:00.024Z,25.04
2022-08-03T11:18:38.489Z,25.07
2022-08-03T11:21:15.664Z,25.11
2022-08-03T11:24:04.486Z,25.11
2022-08-03T11:26:35.761Z,25.22
2022-08-03T11:29:40.011Z,25.17
2022-08-03T11:32:09.855Z,25.07
2022-08-03T11:35:12.801Z,25.08
2022-08-03T11:38:20.599Z,25.16
2022-08-03T11:50:20.310Z,25.52
2022-08-03T11:52:54.514Z,25.54
2022-08-03T11:55:29.007Z,25.58
2022-08-03T11:59:17.769Z,25.63
2022-08-03T12:04:16.630Z,25.65
2022-08-03T12:07:00.692Z,25.66
2022-08-03T12:09:30.551Z,25.85
2022-08-03T12:14:54.582Z,26.20
2022-08-03T12:17:23.183Z,26.13
2022-08-03T12:19:53.408Z,25.96
2022-08-03T12:22:39.442Z,25.89
2022-08-03T12:25:13.792Z,25.86
2022-08-03T12:27:43.765Z,25.89
2022-08-03T12:30:15.245Z,25.84
2022-08-03T12:32:47.491Z,25.73
2022-08-03T12:35:25.786Z,25.77
2022-08-03T12:37:58.861Z,25.76
2022-08-03T12:40:33.274Z,25.79
2022-08-03T12:43:18.664Z,25.80
2022-08-03T12:45:47.510Z,25.75
2022-08-03T12:48:17.244Z,25.77
2022-08-03T12:50:46.299Z,25.76
2022-08-03T12:53:32.735Z,25.83
2022-08-03T12:56:10.846Z,25.97
2022-08-03T12:58:40.234Z,26.14
2022-08-03T13:01:09.728Z,26.28
2022-08-03T13:03:55.554Z,26.37
2022-08-03T13:06:28.943Z,26.40
2022-08-03T13:09:15.244Z,26.57
2022-08-03T13:12:08.300Z,26.89
2022-08-03T13:14:39.990Z,27.15
2022-08-03T13:17:09.214Z,27.15
2022-08-03T13:19:39.874Z,27.78
2022-08-03T13:22:16.234Z,27.90
2022-08-03T13:24:50.866Z,28.12
2022-08-03T13:27:58.845Z,28.27
2022-08-03T13:30:11.453Z,28.72
2022-08-03T13:32:43.175Z,29.22
2022-08-03T13:35:17.492Z,29.39
2022-08-03T13:37:48.862Z,29.39
2022-08-03T13:40:30.474Z,29.34
2022-08-03T13:43:01.125Z,29.17
2022-08-03T13:45:36.468Z,29.63
2022-08-03T13:48:05.248Z,29.70
2022-08-03T13:50:34.604Z,29.83
2022-08-03T13:53:10.898Z,29.97
2022-08-03T13:55:44.038Z,29.92
2022-08-03T14:01:09.011Z,29.50
2022-08-03T14:03:37.445Z,29.65
2022-08-03T14:06:21.617Z,29.69
2022-08-03T14:08:50.953Z,29.81
2022-08-03T14:11:21.505Z,30.14
2022-08-03T14:13:53.359Z,30.61
2022-08-03T14:16:28.076Z,30.66
2022-08-03T14:18:59.367Z,31.10
2022-08-03T14:21:30.662Z,31.71
2022-08-03T14:23:58.945Z,32.24
2022-08-03T14:26:27.521Z,32.16
2022-08-03T14:29:01.031Z,31.88
2022-08-03T14:32:11.713Z,31.78
2022-08-03T14:34:17.846Z,31.46
2022-08-03T14:36:47.254Z,31.51
2022-08-03T14:39:16.523Z,31.90
2022-08-03T14:41:45.671Z,32.16
2022-08-03T14:44:17.310Z,32.08
2022-08-03T14:46:45.550Z,31.47
2022-08-03T14:50:34.886Z,30.56
2022-08-03T14:52:05.980Z,29.76
2022-08-03T14:54:36.051Z,29.33
2022-08-03T14:57:10.864Z,28.93
2022-08-03T14:59:57.100Z,28.42
2022-08-03T15:02:28.042Z,27.88
2022-08-03T15:05:13.137Z,27.60
2022-08-03T15:07:41.694Z,27.44
2022-08-03T15:10:12.567Z,27.46
2022-08-03T15:12:45.452Z,27.53
2022-08-03T15:15:16.031Z,27.49
2022-08-03T15:18:00.243Z,27.48
2022-08-03T15:20:43.250Z,27.59
2022-08-03T15:23:53.903Z,27.66
2022-08-03T15:26:30.675Z,27.66
2022-08-03T15:30:09.658Z,27.78
2022-08-03T15:32:14.448Z,27.87
2022-08-03T15:34:50.407Z,28.05
2022-08-03T15:37:22.711Z,28.30
2022-08-03T15:39:59.805Z,28.56
2022-08-03T15:42:30.207Z,28.42
2022-08-03T15:45:06.581Z,28.27
2022-08-03T15:47:38.512Z,28.33
2022-08-03T15:50:38.806Z,28.41
2022-08-03T15:53:09.819Z,28.58
2022-08-03T15:55:41.397Z,28.79
2022-08-03T16:01:34.225Z,28.79
2022-08-03T16:04:05.143Z,28.85
2022-08-03T16:09:42.810Z,28.55
2022-08-03T16:12:16.009Z,28.54
2022-08-03T16:14:52.796Z,28.48
2022-08-03T16:17:26.378Z,28.57
2022-08-03T16:19:55.428Z,28.55
2022-08-03T16:22:24.460Z,28.97
2022-08-03T16:24:53.996Z,29.34
2022-08-03T16:27:56.547Z,29.90
2022-08-03T16:30:28.658Z,29.85
2022-08-03T16:33:06.906Z,29.53
2022-08-03T16:35:38.500Z,29.57
2022-08-03T16:38:24.827Z,29.95
2022-08-03T16:40:53.242Z,30.66
2022-08-03T16:43:25.906Z,31.18
2022-08-03T16:45:55.151Z,31.35
2022-08-03T16:48:25.810Z,31.28
2022-08-03T16:50:54.761Z,31.36
2022-08-03T16:53:33.712Z,31.36
2022-08-03T16:56:11.774Z,31.50
2022-08-03T16:58:42.359Z,31.57
2022-08-03T17:01:24.081Z,31.73
2022-08-03T17:04:03.504Z,31.79
2022-08-03T17:06:35.722Z,31.73
2022-08-03T17:09:08.956Z,31.71
2022-08-03T17:11:39.050Z,31.70
2022-08-03T17:14:14.897Z,31.58
2022-08-03T17:16:52.725Z,31.48
2022-08-03T17:19:27.276Z,31.28
2022-08-03T17:22:04.556Z,31.36
2022-08-03T17:24:41.052Z,31.63
2022-08-03T17:27:23.156Z,32.17
2022-08-03T17:30:09.478Z,32.72
2022-08-03T17:32:56.718Z,33.28
2022-08-03T17:35:34.357Z,33.68
2022-08-03T17:38:10.357Z,34.05
2022-08-03T17:40:39.144Z,34.29
2022-08-03T17:44:14.329Z,34.40
2022-08-03T17:46:10.566Z,34.42
2022-08-03T17:48:41.419Z,34.59
2022-08-03T17:51:20.596Z,34.50
2022-08-03T17:53:55.181Z,33.99
2022-08-03T17:56:42.480Z,33.81
2022-08-03T17:59:50.544Z,33.56
2022-08-03T18:02:47.793Z,33.13
2022-08-03T18:05:21.982Z,32.93
2022-08-03T18:07:59.257Z,32.76
2022-08-03T18:10:35.223Z,32.84
2022-08-03T18:13:10.603Z,32.79
2022-08-03T18:15:43.855Z,32.51
2022-08-03T18:18:15.478Z,32.08
2022-08-03T18:20:48.457Z,31.59
2022-08-03T18:23:25.538Z,31.16
2022-08-03T18:26:11.822Z,30.69
2022-08-03T18:28:41.316Z,30.10
2022-08-03T18:31:11.979Z,29.57
2022-08-03T18:34:18.464Z,29.27
2022-08-03T18:36:37.799Z,28.65
2022-08-03T18:39:12.583Z,28.14
2022-08-03T18:41:44.585Z,27.75
2022-08-03T18:44:37.513Z,27.29
2022-08-03T18:47:16.872Z,26.87
2022-08-03T18:49:59.899Z,26.59
2022-08-03T18:52:32.878Z,26.46
2022-08-03T18:55:20.831Z,26.58
2022-08-03T18:58:01.282Z,27.05
2022-08-03T19:00:54.117Z,27.55
2022-08-03T19:03:43.143Z,27.67
2022-08-03T19:06:20.050Z,27.90
2022-08-03T19:08:55.768Z,28.29
2022-08-03T19:12:14.248Z,28.87
2022-08-03T19:14:28.817Z,29.10
2022-08-03T19:17:07.163Z,28.97
2022-08-03T19:19:44.013Z,28.69
2022-08-03T19:22:29.321Z,28.03
2022-08-03T19:25:02.289Z,27.51
2022-08-03T19:27:33.458Z,27.08
2022-08-03T19:30:14.099Z,26.65
2022-08-03T19:32:52.347Z,26.23
2022-08-03T19:35:51.805Z,25.84
2022-08-03T19:38:11.739Z,25.44
2022-08-03T19:40:51.202Z,25.20
2022-08-03T19:43:57.673Z,24.87
2022-08-03T19:46:36.308Z,24.68
2022-08-03T19:49:15.435Z,24.48
2022-08-03T19:51:58.982Z,24.28
2022-08-03T19:54:45.743Z,24.13
2022-08-03T19:57:24.685Z,23.96
2022-08-03T19:59:57.286Z,23.88
2022-08-03T20:02:28.121Z,23.77
2022-08-03T20:05:00.697Z,23.68
2022-08-03T20:07:47.777Z,23.63
2022-08-03T20:10:38.155Z,23.62
2022-08-03T20:13:08.590Z,23.59
2022-08-03T20:15:41.338Z,23.64
2022-08-03T20:18:16.846Z,23.58
2022-08-03T20:20:49.869Z,23.56
2022-08-03T20:23:23.845Z,23.59
2022-08-03T20:26:03.948Z,23.62
2022-08-03T20:28:50.562Z,23.54
2022-08-03T20:34:11.986Z,23.29
2022-08-03T20:36:46.344Z,23.12
2022-08-03T20:39:14.978Z,23.02
2022-08-03T20:41:50.987Z,22.96
2022-08-03T20:44:26.011Z,22.92
2022-08-03T20:47:00.737Z,22.88
2022-08-03T20:49:46.034Z,22.86
2022-08-03T20:52:18.947Z,22.84
2022-08-03T20:54:49.457Z,22.86
2022-08-03T20:57:34.479Z,22.84
2022-08-03T21:00:17.070Z,22.82
2022-08-03T21:03:14.467Z,22.77
2022-08-03T21:06:11.410Z,22.69
2022-08-03T21:08:48.189Z,22.56
2022-08-03T21:11:25.433Z,22.51
2022-08-03T21:13:13.335Z,23.50
2022-08-03T21:14:00.096Z,22.47
2022-08-03T21:16:30.521Z,22.36
2022-08-03T21:21:52.641Z,22.29
2022-08-03T21:24:25.939Z,22.28
2022-08-03T21:26:57.357Z,22.35
2022-08-03T21:29:28.737Z,22.36
2022-08-03T21:31:58.148Z,22.42
2022-08-03T21:34:45.501Z,22.41
2022-08-03T21:37:15.217Z,22.44
2022-08-03T21:39:50.695Z,22.42
2022-08-03T21:42:27.507Z,22.46
2022-08-03T21:44:55.780Z,22.49
2022-08-03T21:47:25.686Z,22.48
2022-08-03T21:50:06.083Z,22.44
2022-08-03T21:52:42.138Z,22.33
2022-08-03T21:55:20.632Z,22.34
2022-08-03T21:57:53.458Z,22.30
2022-08-03T22:00:24.291Z,22.30
2022-08-03T22:03:17.313Z,22.24
2022-08-03T22:05:47.728Z,22.24
2022-08-03T22:08:17.080Z,22.26
2022-08-03T22:10:55.433Z,22.27
2022-08-03T22:13:43.277Z,22.25
2022-08-03T22:16:12.464Z,22.28
2022-08-03T22:18:42.495Z,22.28
2022-08-03T22:21:14.955Z,22.23
2022-08-03T22:23:48.224Z,22.24
2022-08-03T22:26:32.192Z,22.20
2022-08-03T22:29:07.618Z,22.21
2022-08-03T22:31:58.422Z,22.14
2022-08-03T22:34:27.286Z,22.09
2022-08-03T22:37:02.874Z,22.07
2022-08-03T22:39:31.710Z,22.07
2022-08-03T22:42:00.358Z,22.01
2022-08-03T22:44:29.507Z,22.01
2022-08-03T22:46:59.312Z,22.03
2022-08-03T22:49:29.945Z,22.05
2022-08-03T22:52:01.679Z,22.03
2022-08-03T22:54:32.192Z,22.04
2022-08-03T22:57:03.055Z,22.07
2022-08-03T22:59:40.195Z,22.16
2022-08-03T23:02:20.862Z,22.15
2022-08-03T23:04:52.342Z,22.19
2022-08-03T23:07:30.243Z,22.21
2022-08-03T23:10:00.034Z,22.24
2022-08-03T23:12:29.697Z,22.28
2022-08-03T23:15:02.382Z,22.31
2022-08-03T23:17:32.620Z,22.27
2022-08-03T23:20:04.638Z,22.25
2022-08-03T23:22:39.738Z,22.17
2022-08-03T23:25:12.146Z,22.14
2022-08-03T23:27:43.819Z,22.15
2022-08-03T23:30:13.691Z,22.15
2022-08-03T23:32:44.884Z,22.14
2022-08-03T23:36:22.679Z,22.15
2022-08-03T23:38:35.702Z,22.06
2022-08-03T23:41:06.036Z,22.06
2022-08-03T23:43:50.776Z,22.03
2022-08-03T23:46:22.920Z,22.01
2022-08-03T23:48:51.648Z,22.01
2022-08-03T23:51:33.632Z,21.97
2022-08-03T23:54:11.372Z,21.96
2022-08-03T23:56:46.725Z,21.94
2022-08-03T23:59:26.011Z,21.91
